createdAt,value
2018-05-06T00:00:34.648Z,20.64
2018-05-06T00:01:12.180Z,20.57
2018-05-06T00:01:49.687Z,20.63
2018-05-06T00:02:27.873Z,20.66
2018-05-06T00:03:05.966Z,20.62
2018-05-06T00:03:43.466Z,20.64
2018-05-06T00:04:21.090Z,20.64
2018-05-06T00:04:58.590Z,20.67
2018-05-06T00:05:36.196Z,20.67
2018-05-06T00:06:13.790Z,20.64
2018-05-06T00:06:52.043Z,20.69
2018-05-06T00:07:29.428Z,20.73
2018-05-06T00:08:06.984Z,20.70
2018-05-06T00:08:44.527Z,20.70
2018-05-06T00:09:22.051Z,20.71
2018-05-06T00:09:59.670Z,20.68
2018-05-06T00:10:37.257Z,20.64
2018-05-06T00:11:14.590Z,20.65
2018-05-06T00:11:52.703Z,20.64
2018-05-06T00:12:30.088Z,20.68
2018-05-06T00:13:07.690Z,20.67
2018-05-06T00:13:45.208Z,20.64
2018-05-06T00:14:22.583Z,20.64
2018-05-06T00:15:00.137Z,20.60
2018-05-06T00:15:37.703Z,20.63
2018-05-06T00:16:15.306Z,20.63
2018-05-06T00:16:52.838Z,20.63
2018-05-06T00:17:30.935Z,20.57
2018-05-06T00:18:09.036Z,20.58
2018-05-06T00:18:46.415Z,20.65
2018-05-06T00:19:24.067Z,20.65
2018-05-06T00:20:01.431Z,20.62
2018-05-06T00:20:38.816Z,20.68
2018-05-06T00:21:16.207Z,20.69
2018-05-06T00:21:53.555Z,20.59
2018-05-06T00:22:31.058Z,20.63
2018-05-06T00:23:09.190Z,20.62
2018-05-06T00:23:46.786Z,20.66
2018-05-06T00:24:24.192Z,20.65
2018-05-06T00:25:02.335Z,20.64
2018-05-06T00:25:39.815Z,20.67
2018-05-06T00:26:17.390Z,20.63
2018-05-06T00:26:54.998Z,20.63
2018-05-06T00:27:33.148Z,20.68
2018-05-06T00:28:10.799Z,20.65
2018-05-06T00:28:48.329Z,20.65
2018-05-06T00:29:26.675Z,20.59
2018-05-06T00:30:04.822Z,20.58
2018-05-06T00:30:42.405Z,20.56
2018-05-06T00:31:19.969Z,20.58
2018-05-06T00:31:57.574Z,20.62
2018-05-06T00:32:35.172Z,20.59
2018-05-06T00:33:12.637Z,20.62
2018-05-06T00:33:50.912Z,20.61
2018-05-06T00:34:29.042Z,20.64
2018-05-06T00:35:06.468Z,20.64
2018-05-06T00:35:43.851Z,20.65
2018-05-06T00:36:21.214Z,20.66
2018-05-06T00:36:58.851Z,20.65
2018-05-06T00:37:36.430Z,20.61
2018-05-06T00:38:13.987Z,20.60
2018-05-06T00:38:51.318Z,20.60
2018-05-06T00:39:28.667Z,20.60
2018-05-06T00:40:06.848Z,20.59
2018-05-06T00:40:44.442Z,20.56
2018-05-06T00:41:22.011Z,20.56
2018-05-06T00:41:59.450Z,20.54
2018-05-06T00:42:36.958Z,20.52
2018-05-06T00:43:14.544Z,20.55
2018-05-06T00:43:52.940Z,20.58
2018-05-06T00:44:31.162Z,20.53
2018-05-06T00:45:09.519Z,20.49
2018-05-06T00:45:47.615Z,20.46
2018-05-06T00:46:25.802Z,20.52
2018-05-06T00:47:03.335Z,20.53
2018-05-06T00:47:40.978Z,20.51
2018-05-06T00:48:18.485Z,20.46
2018-05-06T00:48:56.686Z,20.49
2018-05-06T00:49:34.270Z,20.50
2018-05-06T00:50:11.611Z,20.47
2018-05-06T00:50:49.219Z,20.46
2018-05-06T00:51:26.798Z,20.48
2018-05-06T00:52:04.158Z,20.49
2018-05-06T00:52:41.767Z,20.50
2018-05-06T00:53:19.330Z,20.46
2018-05-06T00:53:57.610Z,20.48
2018-05-06T00:54:35.200Z,20.54
2018-05-06T00:55:13.618Z,20.47
2018-05-06T00:55:51.187Z,20.49
2018-05-06T00:56:29.332Z,20.52
2018-05-06T00:57:06.878Z,20.54
2018-05-06T00:57:44.484Z,20.49
2018-05-06T00:58:21.994Z,20.53
2018-05-06T00:58:59.591Z,20.52
2018-05-06T00:59:37.079Z,20.50
2018-05-06T01:00:15.377Z,20.51
2018-05-06T01:00:52.929Z,20.52
2018-05-06T01:01:31.042Z,20.46
2018-05-06T01:02:08.619Z,20.47
2018-05-06T01:02:45.969Z,20.50
2018-05-06T01:03:23.352Z,20.45
2018-05-06T01:04:00.867Z,20.47
2018-05-06T01:04:39.050Z,20.48
2018-05-06T01:05:17.162Z,20.49
2018-05-06T01:05:54.603Z,20.51
2018-05-06T01:06:32.937Z,20.54
2018-05-06T01:07:11.230Z,20.55
2018-05-06T01:07:48.923Z,20.55
2018-05-06T01:08:26.514Z,20.55
2018-05-06T01:09:04.088Z,20.59
2018-05-06T01:09:41.658Z,20.63
2018-05-06T01:10:19.243Z,20.66
2018-05-06T01:10:56.817Z,20.67
2018-05-06T01:11:34.386Z,20.67
2018-05-06T01:12:11.686Z,20.70
2018-05-06T01:12:49.254Z,20.71
2018-05-06T01:13:26.625Z,20.71
2018-05-06T01:14:04.714Z,20.72
2018-05-06T01:14:42.227Z,20.69
2018-05-06T01:15:19.598Z,20.63
2018-05-06T01:15:57.178Z,20.63
2018-05-06T01:16:35.364Z,20.60
2018-05-06T01:17:13.639Z,20.63
2018-05-06T01:17:51.994Z,20.57
2018-05-06T01:18:29.522Z,20.57
2018-05-06T01:19:06.920Z,20.55
2018-05-06T01:19:44.406Z,20.58
2018-05-06T01:20:21.962Z,20.54
2018-05-06T01:20:59.322Z,20.54
2018-05-06T01:21:36.870Z,20.54
2018-05-06T01:22:14.432Z,20.46
2018-05-06T01:22:51.984Z,20.51
2018-05-06T01:23:30.173Z,20.49
2018-05-06T01:24:07.575Z,20.55
2018-05-06T01:24:44.850Z,20.52
2018-05-06T01:25:22.298Z,20.51
2018-05-06T01:25:59.654Z,20.51
2018-05-06T01:26:37.783Z,20.53
2018-05-06T01:27:15.358Z,20.53
2018-05-06T01:27:53.685Z,20.48
2018-05-06T01:28:31.169Z,20.47
2018-05-06T01:29:09.438Z,20.45
2018-05-06T01:29:47.718Z,20.50
2018-05-06T01:30:26.052Z,20.44
2018-05-06T01:31:03.571Z,20.49
2018-05-06T01:31:41.095Z,20.51
2018-05-06T01:32:18.616Z,20.49
2018-05-06T01:32:55.948Z,20.46
2018-05-06T01:33:33.524Z,20.46
2018-05-06T01:34:11.156Z,20.44
2018-05-06T01:34:49.401Z,20.45
2018-05-06T01:35:26.732Z,20.42
2018-05-06T01:36:04.190Z,20.46
2018-05-06T01:36:42.564Z,20.44
2018-05-06T01:37:20.119Z,20.47
2018-05-06T01:37:57.652Z,20.49
2018-05-06T01:38:35.926Z,20.51
2018-05-06T01:39:13.514Z,20.46
2018-05-06T01:39:50.908Z,20.49
2018-05-06T01:40:28.489Z,20.44
2018-05-06T01:41:05.868Z,20.51
2018-05-06T01:41:43.415Z,20.50
2018-05-06T01:42:20.762Z,20.52
2018-05-06T01:42:58.942Z,20.52
2018-05-06T01:43:37.185Z,20.47
2018-05-06T01:44:14.800Z,20.44
2018-05-06T01:44:52.349Z,20.46
2018-05-06T01:45:29.690Z,20.45
2018-05-06T01:46:07.330Z,20.50
2018-05-06T01:46:44.754Z,20.51
2018-05-06T01:47:22.139Z,20.53
2018-05-06T01:47:59.519Z,20.54
2018-05-06T01:48:37.041Z,20.49
2018-05-06T01:49:15.234Z,20.43
2018-05-06T01:49:52.769Z,20.42
2018-05-06T01:50:30.073Z,20.42
2018-05-06T01:51:07.636Z,20.41
2018-05-06T01:51:45.231Z,20.47
2018-05-06T01:52:22.782Z,20.51
2018-05-06T01:53:00.172Z,20.45
2018-05-06T01:53:37.650Z,20.47
2018-05-06T01:54:15.067Z,20.46
2018-05-06T01:54:52.615Z,20.47
2018-05-06T01:55:30.214Z,20.38
2018-05-06T01:56:07.778Z,20.35
2018-05-06T01:56:45.900Z,20.42
2018-05-06T01:57:23.443Z,20.39
2018-05-06T01:58:01.657Z,20.44
2018-05-06T01:58:39.766Z,20.41
2018-05-06T01:59:17.380Z,20.36
2018-05-06T01:59:54.794Z,20.43
2018-05-06T02:00:33.097Z,20.47
2018-05-06T02:01:10.703Z,20.44
2018-05-06T02:01:48.030Z,20.38
2018-05-06T02:02:25.411Z,20.40
2018-05-06T02:03:03.024Z,20.38
2018-05-06T02:03:40.671Z,20.42
2018-05-06T02:04:18.060Z,20.37
2018-05-06T02:04:55.657Z,20.38
2018-05-06T02:05:33.167Z,20.42
2018-05-06T02:06:10.746Z,20.37
2018-05-06T02:06:48.325Z,20.40
2018-05-06T02:07:25.885Z,20.36
2018-05-06T02:08:04.167Z,20.42
2018-05-06T02:08:41.526Z,20.43
2018-05-06T02:09:19.093Z,20.42
2018-05-06T02:09:57.499Z,20.39
2018-05-06T02:10:35.036Z,20.40
2018-05-06T02:11:13.413Z,20.41
2018-05-06T02:11:50.971Z,20.49
2018-05-06T02:12:28.343Z,20.49
2018-05-06T02:13:05.938Z,20.47
2018-05-06T02:13:43.530Z,20.44
2018-05-06T02:14:21.147Z,20.45
2018-05-06T02:14:59.379Z,20.43
2018-05-06T02:15:36.905Z,20.41
2018-05-06T02:16:14.487Z,20.43
2018-05-06T02:16:51.928Z,20.46
2018-05-06T02:17:29.248Z,20.51
2018-05-06T02:18:06.853Z,20.54
2018-05-06T02:18:45.125Z,20.54
2018-05-06T02:19:23.407Z,20.51
2018-05-06T02:20:01.699Z,20.54
2018-05-06T02:20:39.122Z,20.52
2018-05-06T02:21:16.679Z,20.55
2018-05-06T02:21:54.865Z,20.55
2018-05-06T02:22:32.267Z,20.55
2018-05-06T02:23:10.422Z,20.53
2018-05-06T02:23:48.007Z,20.59
2018-05-06T02:24:25.596Z,20.55
2018-05-06T02:25:03.227Z,20.59
2018-05-06T02:25:40.771Z,20.59
2018-05-06T02:26:18.123Z,20.60
2018-05-06T02:26:55.498Z,20.56
2018-05-06T02:27:33.604Z,20.48
2018-05-06T02:28:11.180Z,20.46
2018-05-06T02:28:48.727Z,20.47
2018-05-06T02:29:26.107Z,20.45
2018-05-06T02:30:03.497Z,20.42
2018-05-06T02:30:40.838Z,20.46
2018-05-06T02:31:18.182Z,20.49
2018-05-06T02:31:55.724Z,20.49
2018-05-06T02:32:33.152Z,20.51
2018-05-06T02:33:10.729Z,20.49
2018-05-06T02:33:48.266Z,20.54
2018-05-06T02:34:26.386Z,20.57
2018-05-06T02:35:04.599Z,20.60
2018-05-06T02:35:42.774Z,20.59
2018-05-06T02:36:20.149Z,20.64
2018-05-06T02:36:58.459Z,20.60
2018-05-06T02:37:36.026Z,20.58
2018-05-06T02:38:14.414Z,20.58
2018-05-06T02:38:52.519Z,20.55
2018-05-06T02:39:29.880Z,20.54
2018-05-06T02:40:07.485Z,20.56
2018-05-06T02:40:44.826Z,20.59
2018-05-06T02:41:22.384Z,20.59
2018-05-06T02:41:59.947Z,20.62
2018-05-06T02:42:38.040Z,20.65
2018-05-06T02:43:15.619Z,20.65
2018-05-06T02:43:53.194Z,20.64
2018-05-06T02:44:30.758Z,20.63
2018-05-06T02:45:08.244Z,20.63
2018-05-06T02:45:45.791Z,20.63
2018-05-06T02:46:23.307Z,20.62
2018-05-06T02:47:01.485Z,20.63
2018-05-06T02:47:39.085Z,20.62
2018-05-06T02:48:17.257Z,20.58
2018-05-06T02:48:55.379Z,20.63
2018-05-06T02:49:32.719Z,20.63
2018-05-06T02:50:10.011Z,20.64
2018-05-06T02:50:47.587Z,20.63
2018-05-06T02:51:25.795Z,20.64
2018-05-06T02:52:03.366Z,20.63
2018-05-06T02:52:40.750Z,20.66
2018-05-06T02:53:18.263Z,20.67
2018-05-06T02:53:55.783Z,20.63
2018-05-06T02:54:33.277Z,20.65
2018-05-06T02:55:10.626Z,20.65
2018-05-06T02:55:47.995Z,20.65
2018-05-06T02:56:26.341Z,20.63
2018-05-06T02:57:03.962Z,20.64
2018-05-06T02:57:41.436Z,20.64
2018-05-06T02:58:18.954Z,20.65
2018-05-06T02:58:56.563Z,20.66
2018-05-06T02:59:34.069Z,20.68
2018-05-06T03:00:11.624Z,20.68
2018-05-06T03:00:48.975Z,20.66
2018-05-06T03:01:26.346Z,20.68
2018-05-06T03:02:03.968Z,20.69
2018-05-06T03:02:42.239Z,20.67
2018-05-06T03:03:19.562Z,20.64
2018-05-06T03:03:57.150Z,20.60
2018-05-06T03:04:34.748Z,20.57
2018-05-06T03:05:12.268Z,20.59
2018-05-06T03:05:49.874Z,20.61
2018-05-06T03:06:27.475Z,20.59
2018-05-06T03:07:05.007Z,20.62
2018-05-06T03:07:42.594Z,20.63
2018-05-06T03:08:20.204Z,20.64
2018-05-06T03:08:57.746Z,20.66
2018-05-06T03:09:35.352Z,20.63
2018-05-06T03:10:12.696Z,20.63
2018-05-06T03:10:50.290Z,20.62
2018-05-06T03:11:27.644Z,20.60
2018-05-06T03:12:05.030Z,20.57
2018-05-06T03:12:42.596Z,20.64
2018-05-06T03:13:20.261Z,20.61
2018-05-06T03:13:57.607Z,20.59
2018-05-06T03:14:35.041Z,20.62
2018-05-06T03:15:12.666Z,20.63
2018-05-06T03:15:50.247Z,20.62
2018-05-06T03:16:28.491Z,20.58
2018-05-06T03:17:05.987Z,20.58
2018-05-06T03:17:43.547Z,20.59
2018-05-06T03:18:21.138Z,20.62
2018-05-06T03:18:58.633Z,20.63
2018-05-06T03:19:36.045Z,20.61
2018-05-06T03:20:13.566Z,20.60
2018-05-06T03:20:51.159Z,20.61
2018-05-06T03:21:28.596Z,20.63
2018-05-06T03:22:06.075Z,20.64
2018-05-06T03:22:43.691Z,20.63
2018-05-06T03:23:21.766Z,20.66
2018-05-06T03:23:59.171Z,20.64
2018-05-06T03:24:36.716Z,20.63
2018-05-06T03:25:14.203Z,20.64
2018-05-06T03:25:51.795Z,20.65
2018-05-06T03:26:29.204Z,20.69
2018-05-06T03:27:06.749Z,20.67
2018-05-06T03:27:44.321Z,20.69
2018-05-06T03:28:21.835Z,20.70
2018-05-06T03:28:59.351Z,20.70
2018-05-06T03:29:37.758Z,20.71
2018-05-06T03:30:15.046Z,20.68
2018-05-06T03:30:52.654Z,20.70
2018-05-06T03:31:30.243Z,20.68
2018-05-06T03:32:07.577Z,20.69
2018-05-06T03:32:45.147Z,20.64
2018-05-06T03:33:22.804Z,20.61
2018-05-06T03:34:00.980Z,20.57
2018-05-06T03:34:38.542Z,20.51
2018-05-06T03:35:16.035Z,20.49
2018-05-06T03:35:53.639Z,20.52
2018-05-06T03:36:31.223Z,20.53
2018-05-06T03:37:08.760Z,20.51
2018-05-06T03:37:46.132Z,20.47
2018-05-06T03:38:23.475Z,20.48
2018-05-06T03:39:00.747Z,20.48
2018-05-06T03:39:39.083Z,20.46
2018-05-06T03:40:16.701Z,20.40
2018-05-06T03:40:54.280Z,20.36
2018-05-06T03:41:31.863Z,20.36
2018-05-06T03:42:09.403Z,20.38
2018-05-06T03:42:46.887Z,20.40
2018-05-06T03:43:24.514Z,20.38
2018-05-06T03:44:02.099Z,20.34
2018-05-06T03:44:39.637Z,20.40
2018-05-06T03:45:17.103Z,20.45
2018-05-06T03:45:54.472Z,20.47
2018-05-06T03:46:32.010Z,20.45
2018-05-06T03:47:10.279Z,20.42
2018-05-06T03:47:47.779Z,20.40
2018-05-06T03:48:26.061Z,20.43
2018-05-06T03:49:04.271Z,20.42
2018-05-06T03:49:42.568Z,20.42
2018-05-06T03:50:20.045Z,20.48
2018-05-06T03:50:58.433Z,20.53
2018-05-06T03:51:36.014Z,20.51
2018-05-06T03:52:14.321Z,20.49
2018-05-06T03:52:51.893Z,20.46
2018-05-06T03:53:29.561Z,20.46
2018-05-06T03:54:07.158Z,20.48
2018-05-06T03:54:44.755Z,20.48
2018-05-06T03:55:22.174Z,20.49
2018-05-06T03:55:59.727Z,20.52
2018-05-06T03:56:37.316Z,20.52
2018-05-06T03:57:14.858Z,20.54
2018-05-06T03:57:52.216Z,20.59
2018-05-06T03:58:29.870Z,20.63
2018-05-06T03:59:07.385Z,20.68
2018-05-06T03:59:45.771Z,20.74
2018-05-06T04:00:23.207Z,20.66
2018-05-06T04:01:00.654Z,20.67
2018-05-06T04:01:37.981Z,20.65
2018-05-06T04:02:15.607Z,20.63
2018-05-06T04:02:53.216Z,20.59
2018-05-06T04:03:30.730Z,20.58
2018-05-06T04:04:08.130Z,20.57
2018-05-06T04:04:46.433Z,20.57
2018-05-06T04:05:24.738Z,20.64
2018-05-06T04:06:02.279Z,20.60
2018-05-06T04:06:39.619Z,20.62
2018-05-06T04:07:17.186Z,20.62
2018-05-06T04:07:55.471Z,20.64
2018-05-06T04:08:33.080Z,20.64
2018-05-06T04:09:10.629Z,20.63
2018-05-06T04:09:48.268Z,20.60
2018-05-06T04:10:25.738Z,20.63
2018-05-06T04:11:03.298Z,20.62
2018-05-06T04:11:41.464Z,20.63
2018-05-06T04:12:19.073Z,20.63
2018-05-06T04:12:56.651Z,20.64
2018-05-06T04:13:34.047Z,20.65
2018-05-06T04:14:11.430Z,20.70
2018-05-06T04:14:48.956Z,20.73
2018-05-06T04:15:26.566Z,20.68
2018-05-06T04:16:04.166Z,20.71
2018-05-06T04:16:41.629Z,20.71
2018-05-06T04:17:19.264Z,20.74
2018-05-06T04:17:56.786Z,20.75
2018-05-06T04:18:34.340Z,20.80
2018-05-06T04:19:12.640Z,20.82
2018-05-06T04:19:50.960Z,20.75
2018-05-06T04:20:28.527Z,20.74
2018-05-06T04:21:06.124Z,20.72
2018-05-06T04:21:44.323Z,20.72
2018-05-06T04:22:22.528Z,20.71
2018-05-06T04:23:00.037Z,20.68
2018-05-06T04:23:37.400Z,20.67
2018-05-06T04:24:15.794Z,20.70
2018-05-06T04:24:54.049Z,20.68
2018-05-06T04:25:31.402Z,20.60
2018-05-06T04:26:09.066Z,20.54
2018-05-06T04:26:46.629Z,20.50
2018-05-06T04:27:23.968Z,20.41
2018-05-06T04:28:02.063Z,20.43
2018-05-06T04:28:40.228Z,20.44
2018-05-06T04:29:17.792Z,20.48
2018-05-06T04:29:55.343Z,20.42
2018-05-06T04:30:32.827Z,20.43
2018-05-06T04:31:10.390Z,20.40
2018-05-06T04:31:48.480Z,20.34
2018-05-06T04:32:25.828Z,20.39
2018-05-06T04:33:03.472Z,20.42
2018-05-06T04:33:41.021Z,20.38
2018-05-06T04:34:19.111Z,20.41
2018-05-06T04:34:56.666Z,20.41
2018-05-06T04:35:34.794Z,20.42
2018-05-06T04:36:12.360Z,20.42
2018-05-06T04:36:49.884Z,20.42
2018-05-06T04:37:27.423Z,20.42
2018-05-06T04:38:04.931Z,20.44
2018-05-06T04:38:42.450Z,20.43
2018-05-06T04:39:20.085Z,20.44
2018-05-06T04:39:57.431Z,20.43
2018-05-06T04:40:35.016Z,20.47
2018-05-06T04:41:13.412Z,20.41
2018-05-06T04:41:51.527Z,20.38
2018-05-06T04:42:29.646Z,20.34
2018-05-06T04:43:07.182Z,20.28
2018-05-06T04:43:45.500Z,20.24
2018-05-06T04:44:22.935Z,20.23
2018-05-06T04:45:01.055Z,20.32
2018-05-06T04:45:38.650Z,20.33
2018-05-06T04:46:16.146Z,20.25
2018-05-06T04:46:53.741Z,20.22
2018-05-06T04:47:31.223Z,20.18
2018-05-06T04:48:08.737Z,20.22
2018-05-06T04:48:46.403Z,20.16
2018-05-06T04:49:23.876Z,20.23
2018-05-06T04:50:02.122Z,20.18
2018-05-06T04:50:39.523Z,20.22
2018-05-06T04:51:17.091Z,20.30
2018-05-06T04:51:54.618Z,20.28
2018-05-06T04:52:32.168Z,20.18
2018-05-06T04:53:09.616Z,20.23
2018-05-06T04:53:47.222Z,20.27
2018-05-06T04:54:24.839Z,20.15
2018-05-06T04:55:02.379Z,20.20
2018-05-06T04:55:39.983Z,20.19
2018-05-06T04:56:17.320Z,20.19
2018-05-06T04:56:54.931Z,20.28
2018-05-06T04:57:32.439Z,20.32
2018-05-06T04:58:09.971Z,20.30
2018-05-06T04:58:47.544Z,20.31
2018-05-06T04:59:25.841Z,20.38
2018-05-06T05:00:03.411Z,20.37
2018-05-06T05:00:40.935Z,20.38
2018-05-06T05:01:18.311Z,20.32
2018-05-06T05:01:55.882Z,20.23
2018-05-06T05:02:33.431Z,20.22
2018-05-06T05:03:10.930Z,20.30
2018-05-06T05:03:48.475Z,20.24
2018-05-06T05:04:26.790Z,20.25
2018-05-06T05:05:05.083Z,20.34
2018-05-06T05:05:43.189Z,20.35
2018-05-06T05:06:20.538Z,20.32
2018-05-06T05:06:58.156Z,20.34
2018-05-06T05:07:35.503Z,20.38
2018-05-06T05:08:13.023Z,20.32
2018-05-06T05:08:50.462Z,20.32
2018-05-06T05:09:28.650Z,20.40
2018-05-06T05:10:06.039Z,20.36
2018-05-06T05:10:43.575Z,20.34
2018-05-06T05:11:21.125Z,20.34
2018-05-06T05:11:58.754Z,20.31
2018-05-06T05:12:36.382Z,20.26
2018-05-06T05:13:13.884Z,20.17
2018-05-06T05:13:51.459Z,20.20
2018-05-06T05:14:29.067Z,20.16
2018-05-06T05:15:06.587Z,20.12
2018-05-06T05:15:43.980Z,20.16
2018-05-06T05:16:22.272Z,20.18
2018-05-06T05:17:00.392Z,20.12
2018-05-06T05:17:37.963Z,20.12
2018-05-06T05:18:15.553Z,20.11
2018-05-06T05:18:53.095Z,20.08
2018-05-06T05:19:30.616Z,20.05
2018-05-06T05:20:08.144Z,20.03
2018-05-06T05:20:46.531Z,20.06
2018-05-06T05:21:24.068Z,20.07
2018-05-06T05:22:01.641Z,20.02
2018-05-06T05:22:39.126Z,20.04
2018-05-06T05:23:16.716Z,20.05
2018-05-06T05:23:54.108Z,20.17
2018-05-06T05:24:31.811Z,20.23
2018-05-06T05:25:09.233Z,20.24
2018-05-06T05:25:46.848Z,20.28
2018-05-06T05:26:24.412Z,20.32
2018-05-06T05:27:01.842Z,20.28
2018-05-06T05:27:39.495Z,20.26
2018-05-06T05:28:16.928Z,20.26
2018-05-06T05:28:54.548Z,20.36
2018-05-06T05:29:32.904Z,20.32
2018-05-06T05:30:10.421Z,20.28
2018-05-06T05:30:47.991Z,20.31
2018-05-06T05:31:26.177Z,20.27
2018-05-06T05:32:03.797Z,20.22
2018-05-06T05:32:41.392Z,20.20
2018-05-06T05:33:18.943Z,20.21
2018-05-06T05:33:56.510Z,20.18
2018-05-06T05:34:34.084Z,20.14
2018-05-06T05:35:11.551Z,20.15
2018-05-06T05:35:49.043Z,20.25
2018-05-06T05:36:26.676Z,20.28
2018-05-06T05:37:04.377Z,20.32
2018-05-06T05:37:41.799Z,20.36
2018-05-06T05:38:19.231Z,20.33
2018-05-06T05:38:56.740Z,20.31
2018-05-06T05:39:34.194Z,20.28
2018-05-06T05:40:11.552Z,20.11
2018-05-06T05:40:48.853Z,20.15
2018-05-06T05:41:27.166Z,20.18
2018-05-06T05:42:05.280Z,20.14
2018-05-06T05:42:42.926Z,20.12
2018-05-06T05:43:20.420Z,20.14
2018-05-06T05:43:57.942Z,20.14
2018-05-06T05:44:35.491Z,20.12
2018-05-06T05:45:12.851Z,20.14
2018-05-06T05:45:50.326Z,20.11
2018-05-06T05:46:27.934Z,20.11
2018-05-06T05:47:05.516Z,20.11
2018-05-06T05:47:43.063Z,20.13
2018-05-06T05:48:21.271Z,20.10
2018-05-06T05:48:59.674Z,20.16
2018-05-06T05:49:37.064Z,20.25
2018-05-06T05:50:14.594Z,20.28
2018-05-06T05:50:51.975Z,20.27
2018-05-06T05:51:30.309Z,20.26
2018-05-06T05:52:07.723Z,20.25
2018-05-06T05:52:45.260Z,20.21
2018-05-06T05:53:22.818Z,20.24
2018-05-06T05:54:00.141Z,20.19
2018-05-06T05:54:37.713Z,20.19
2018-05-06T05:55:15.295Z,20.25
2018-05-06T05:55:52.671Z,20.28
2018-05-06T05:56:30.031Z,20.27
2018-05-06T05:57:07.523Z,20.30
2018-05-06T05:57:45.081Z,20.27
2018-05-06T05:58:22.634Z,20.26
2018-05-06T05:59:00.027Z,20.23
2018-05-06T05:59:37.366Z,20.18
2018-05-06T06:00:15.525Z,20.17
2018-05-06T06:00:52.891Z,20.15
2018-05-06T06:01:31.024Z,20.12
2018-05-06T06:02:08.354Z,20.12
2018-05-06T06:02:46.705Z,20.12
2018-05-06T06:03:24.972Z,20.08
2018-05-06T06:04:03.058Z,20.02
2018-05-06T06:04:40.649Z,20.01
2018-05-06T06:05:18.731Z,19.97
2018-05-06T06:05:56.353Z,19.99
2018-05-06T06:06:33.772Z,19.97
2018-05-06T06:07:12.076Z,20.06
2018-05-06T06:07:49.450Z,20.08
2018-05-06T06:08:26.851Z,20.07
2018-05-06T06:09:04.358Z,20.07
2018-05-06T06:09:42.657Z,20.07
2018-05-06T06:10:20.932Z,20.15
2018-05-06T06:10:59.245Z,20.20
2018-05-06T06:11:37.419Z,20.22
2018-05-06T06:12:14.999Z,20.23
2018-05-06T06:12:52.494Z,20.21
2018-05-06T06:13:30.065Z,20.17
2018-05-06T06:14:07.789Z,20.17
2018-05-06T06:14:45.932Z,20.18
2018-05-06T06:15:24.068Z,20.18
2018-05-06T06:16:01.713Z,20.13
2018-05-06T06:16:39.279Z,20.17
2018-05-06T06:17:16.801Z,20.13
2018-05-06T06:17:54.958Z,20.05
2018-05-06T06:18:32.315Z,20.05
2018-05-06T06:19:10.641Z,20.09
2018-05-06T06:19:48.737Z,20.06
2018-05-06T06:20:26.301Z,20.10
2018-05-06T06:21:04.450Z,20.10
2018-05-06T06:21:42.000Z,20.11
2018-05-06T06:22:20.283Z,20.06
2018-05-06T06:22:57.690Z,20.11
2018-05-06T06:23:35.216Z,20.15
2018-05-06T06:24:12.726Z,20.15
2018-05-06T06:24:50.278Z,20.14
2018-05-06T06:25:27.739Z,20.05
2018-05-06T06:26:05.155Z,20.08
2018-05-06T06:26:42.520Z,20.06
2018-05-06T06:27:20.103Z,20.07
2018-05-06T06:27:57.486Z,20.07
2018-05-06T06:28:35.803Z,20.11
2018-05-06T06:29:13.373Z,20.14
2018-05-06T06:29:50.947Z,20.16
2018-05-06T06:30:28.350Z,20.13
2018-05-06T06:31:05.916Z,20.14
2018-05-06T06:31:43.518Z,20.15
2018-05-06T06:32:21.238Z,20.17
2018-05-06T06:32:59.565Z,20.17
2018-05-06T06:33:37.858Z,20.18
2018-05-06T06:34:16.001Z,20.16
2018-05-06T06:34:53.459Z,20.19
2018-05-06T06:35:31.057Z,20.22
2018-05-06T06:36:08.521Z,20.19
2018-05-06T06:36:46.607Z,20.13
2018-05-06T06:37:23.976Z,20.12
2018-05-06T06:38:01.689Z,20.17
2018-05-06T06:38:39.264Z,20.17
2018-05-06T06:39:16.702Z,20.17
2018-05-06T06:39:54.199Z,20.18
2018-05-06T06:40:31.704Z,20.14
2018-05-06T06:41:09.324Z,20.15
2018-05-06T06:41:46.856Z,20.15
2018-05-06T06:42:24.949Z,20.16
2018-05-06T06:43:02.551Z,20.14
2018-05-06T06:43:40.097Z,20.13
2018-05-06T06:44:17.453Z,20.13
2018-05-06T06:44:54.968Z,20.13
2018-05-06T06:45:32.564Z,20.14
2018-05-06T06:46:10.996Z,20.14
2018-05-06T06:46:48.549Z,20.16
2018-05-06T06:47:26.165Z,20.18
2018-05-06T06:48:03.743Z,20.21
2018-05-06T06:48:41.253Z,20.26
2018-05-06T06:49:18.869Z,20.31
2018-05-06T06:49:56.472Z,20.31
2018-05-06T06:50:33.967Z,20.34
2018-05-06T06:51:11.357Z,20.32
2018-05-06T06:51:49.489Z,20.31
2018-05-06T06:52:27.053Z,20.27
2018-05-06T06:53:04.777Z,20.26
2018-05-06T06:53:42.322Z,20.23
2018-05-06T06:54:19.909Z,20.21
2018-05-06T06:54:57.458Z,20.21
2018-05-06T06:55:34.926Z,20.14
2018-05-06T06:56:12.405Z,20.10
2018-05-06T06:56:50.527Z,20.14
2018-05-06T06:57:27.869Z,20.14
2018-05-06T06:58:06.180Z,20.15
2018-05-06T06:58:44.280Z,20.17
2018-05-06T06:59:21.870Z,20.17
2018-05-06T06:59:59.499Z,20.18
2018-05-06T07:00:37.044Z,20.16
2018-05-06T07:01:15.316Z,20.18
2018-05-06T07:01:53.450Z,20.23
2018-05-06T07:02:31.064Z,20.27
2018-05-06T07:03:08.588Z,20.29
2018-05-06T07:03:45.968Z,20.36
2018-05-06T07:04:23.442Z,20.37
2018-05-06T07:05:00.997Z,20.38
2018-05-06T07:05:38.378Z,20.40
2018-05-06T07:06:15.808Z,20.43
2018-05-06T07:06:53.359Z,20.47
2018-05-06T07:07:30.930Z,20.48
2018-05-06T07:08:08.226Z,20.48
2018-05-06T07:08:45.816Z,20.50
2018-05-06T07:09:23.403Z,20.47
2018-05-06T07:10:01.027Z,20.49
2018-05-06T07:10:38.394Z,20.52
2018-05-06T07:11:16.516Z,20.52
2018-05-06T07:11:54.622Z,20.48
2018-05-06T07:12:31.979Z,20.45
2018-05-06T07:13:10.095Z,20.43
2018-05-06T07:13:48.182Z,20.44
2018-05-06T07:14:25.811Z,20.43
2018-05-06T07:15:03.219Z,20.44
2018-05-06T07:15:41.528Z,20.44
2018-05-06T07:16:19.843Z,20.45
2018-05-06T07:16:57.277Z,20.44
2018-05-06T07:17:34.743Z,20.45
2018-05-06T07:18:12.293Z,20.47
2018-05-06T07:18:50.468Z,20.48
2018-05-06T07:19:28.569Z,20.48
2018-05-06T07:20:06.171Z,20.51
2018-05-06T07:20:43.687Z,20.49
2018-05-06T07:21:21.834Z,20.50
2018-05-06T07:21:59.184Z,20.50
2018-05-06T07:22:37.489Z,20.53
2018-05-06T07:23:14.841Z,20.52
2018-05-06T07:23:52.401Z,20.48
2018-05-06T07:24:29.743Z,20.48
2018-05-06T07:25:07.320Z,20.44
2018-05-06T07:25:44.906Z,20.47
2018-05-06T07:26:22.243Z,20.48
2018-05-06T07:26:59.751Z,20.48
2018-05-06T07:27:37.331Z,20.47
2018-05-06T07:28:15.619Z,20.49
2018-05-06T07:28:53.042Z,20.53
2018-05-06T07:29:30.545Z,20.56
2018-05-06T07:30:08.059Z,20.59
2018-05-06T07:30:45.657Z,20.60
2018-05-06T07:31:23.021Z,20.58
2018-05-06T07:32:00.612Z,20.53
2018-05-06T07:32:38.102Z,20.54
2018-05-06T07:33:15.691Z,20.56
2018-05-06T07:33:53.218Z,20.57
2018-05-06T07:34:30.743Z,20.58
2018-05-06T07:35:08.330Z,20.57
2018-05-06T07:35:45.962Z,20.57
2018-05-06T07:36:23.461Z,20.59
2018-05-06T07:37:01.559Z,20.61
2018-05-06T07:37:38.976Z,20.57
2018-05-06T07:38:16.518Z,20.55
2018-05-06T07:38:54.006Z,20.54
2018-05-06T07:39:31.565Z,20.55
2018-05-06T07:40:09.001Z,20.55
2018-05-06T07:40:46.534Z,20.57
2018-05-06T07:41:23.983Z,20.55
2018-05-06T07:42:01.421Z,20.58
2018-05-06T07:42:38.979Z,20.60
2018-05-06T07:43:16.635Z,20.65
2018-05-06T07:43:54.846Z,20.69
2018-05-06T07:44:32.419Z,20.70
2018-05-06T07:45:10.047Z,20.72
2018-05-06T07:45:47.619Z,20.72
2018-05-06T07:46:25.139Z,20.71
2018-05-06T07:47:02.751Z,20.75
2018-05-06T07:47:40.324Z,20.74
2018-05-06T07:48:18.654Z,20.75
2018-05-06T07:48:56.149Z,20.75
2018-05-06T07:49:34.206Z,20.76
2018-05-06T07:50:11.695Z,20.77
2018-05-06T07:50:49.248Z,20.75
2018-05-06T07:51:26.846Z,20.73
2018-05-06T07:52:04.450Z,20.71
2018-05-06T07:52:42.020Z,20.72
2018-05-06T07:53:20.333Z,20.72
2018-05-06T07:53:58.607Z,20.71
2018-05-06T07:54:36.896Z,20.70
2018-05-06T07:55:15.261Z,20.70
2018-05-06T07:55:52.757Z,20.70
2018-05-06T07:56:30.327Z,20.71
2018-05-06T07:57:07.827Z,20.74
2018-05-06T07:57:45.926Z,20.74
2018-05-06T07:58:23.334Z,20.72
2018-05-06T07:59:01.518Z,20.73
2018-05-06T07:59:39.125Z,20.73
2018-05-06T08:00:16.676Z,20.73
2018-05-06T08:00:54.275Z,20.73
2018-05-06T08:01:31.879Z,20.76
2018-05-06T08:02:09.454Z,20.76
2018-05-06T08:02:46.993Z,20.75
2018-05-06T08:03:24.634Z,20.77
2018-05-06T08:04:02.155Z,20.78
2018-05-06T08:04:39.772Z,20.80
2018-05-06T08:05:17.330Z,20.80